Yellowstone, WY

6:26 AM MST on February 06, 2016 (GMT -0700)
Yellowstone | | Change Station
CLOSE
Current Station
Airport
Location: Yellowstone,
Elevation: 7835 ft
Nearby Weather Stations

Elev 7835 ft 44.54 °N, 110.42 °W | Updated 30 minutes ago

Partly Cloudy
Partly Cloudy
21 °F
Feels Like 13 °F
N
6
Wind Variable Wind from Variable
Gusts 29 mph

Today
High -- | Low -- °F
--% Chance of Precip.
Yesterday
High -- | Low -- °F
Precip. -- in
Pressure 30.46 in
Visibility -9999.0 miles
Clouds
Windchill 13 °F
Dew Point 17 °F
Humidity 85%
Rainfall 0.00 in
Snow Depth Not available.
7:34 AM 5:37 PM
Waning Crescent, 5% visible
METAR KP60 061256Z AUTO VRB05KT M06/M08 A3032 RMK AO1 SLP313 T10611083
Pressure 30.46 in
Visibility -9999.0 miles
Clouds
Windchill 13 °F
Dew Point 17 °F
Humidity 85%
Rainfall 0.00 in
Snow Depth Not available.
7:34 AM 5:37 PM
Waning Crescent, 5% visible
METAR KP60 061256Z AUTO VRB05KT M06/M08 A3032 RMK AO1 SLP313 T10611083

10-Day Weather Forecast

Almanac

Astronomy

Feb. 06, 2016 Rise Set
Actual Time
Civil Twilight
Nautical Twilight
Astronomical Twilight
Moon
Length of Visible Light
Length of Day
Tomorrow will be .
, % of the Moon is Illuminated

Today's Extremes

State Highs State Lows

Community

WunderPhotos

Upload Photos

1,890,965 photos uploaded!

WunderBlog® & News

Nearby

Air Quality

  Air Quality AQ Index Pollutant
Not available.

Snow Depth

Station Depth Elevation

Earthquake Activity

City Distance Mag. Time & Date
Minimum magnitude displayed is 2.5.

Coastal Water Temperatures

Place Temperature

Stations

Nearby Weather Stations

Station Location Temp. Windchill Dew Point Humidity Wind Precip. Elev Updated Type
                   

Watches & Warnings

There are currently no watches in effect.